Terminal Aerodrome Forecast
Issued by NWS

Home | Current Version | Previous Version | Text Only | Print | Product List | Glossary On
Versions: 1 2 3 4 5 6 7 8 9 10 11 12 13 14 15 16
000
FTUS45 KABQ 190500
TAFTCC
TAF
KTCC 190535Z 1906/2006 06007KT P6SM FEW040 OVC100
     FM190900 34005KT P6SM SCT002 BKN060
     FM191100 01005KT 2SM BR BKN005
      TEMPO 1912/1915 1/2SM FG VV002
     FM191500 28005KT P6SM SCT150
     FM192200 25007KT P6SM FEW200=

USA.gov is the U.S. government's official web portal to all federal, state and local government web resources and services.